createdAt,value
2023-05-06T00:00:08.184Z,99587.25
2023-05-06T00:02:36.427Z,99584.06
2023-05-06T00:05:04.945Z,99577.00
2023-05-06T00:07:33.132Z,99575.75
2023-05-06T00:10:02.841Z,99570.28
2023-05-06T00:12:31.663Z,99576.84
2023-05-06T00:14:59.677Z,99576.81
2023-05-06T00:17:27.898Z,99569.34
2023-05-06T00:19:56.293Z,99575.19
2023-05-06T00:22:24.396Z,99572.16
2023-05-06T00:24:52.611Z,99574.13
2023-05-06T00:27:22.132Z,99571.69
2023-05-06T00:29:50.229Z,99571.59
2023-05-06T00:32:18.330Z,99562.22
2023-05-06T00:34:46.421Z,99566.09
2023-05-06T00:37:14.613Z,99562.94
2023-05-06T00:39:42.816Z,99571.41
2023-05-06T00:42:10.897Z,99574.50
2023-05-06T00:44:40.325Z,99574.84
2023-05-06T00:47:09.126Z,99574.38
2023-05-06T00:49:37.287Z,99573.94
2023-05-06T00:52:06.019Z,99571.53
2023-05-06T00:54:34.126Z,99570.00
2023-05-06T00:57:02.326Z,99573.38
2023-05-06T00:59:30.395Z,99576.38
2023-05-06T01:02:01.339Z,99580.63
2023-05-06T01:04:30.827Z,99568.53
2023-05-06T01:07:09.335Z,99568.09
2023-05-06T01:09:43.409Z,99567.72
2023-05-06T01:12:18.248Z,99576.25
2023-05-06T01:14:57.061Z,99575.00
2023-05-06T01:17:29.108Z,99568.34
2023-05-06T01:20:01.688Z,99564.38
2023-05-06T01:22:31.882Z,99570.97
2023-05-06T01:25:01.856Z,99561.66
2023-05-06T01:27:30.039Z,99556.53
2023-05-06T01:29:59.675Z,99559.63
2023-05-06T01:32:37.694Z,99567.44
2023-05-06T01:35:13.567Z,99567.69
2023-05-06T01:37:49.353Z,99560.25
2023-05-06T01:40:19.748Z,99557.06
2023-05-06T01:42:50.889Z,99561.97
2023-05-06T01:45:21.863Z,99554.22
2023-05-06T01:47:52.014Z,99549.56
2023-05-06T01:50:21.956Z,99554.97
2023-05-06T01:52:58.684Z,99547.31
2023-05-06T01:55:28.377Z,99546.56
2023-05-06T01:57:57.734Z,99551.63
2023-05-06T02:00:26.684Z,99551.63
2023-05-06T02:02:55.115Z,99554.66
2023-05-06T02:05:23.228Z,99550.34
2023-05-06T02:07:51.414Z,99551.94
2023-05-06T02:10:19.586Z,99547.16
2023-05-06T02:12:49.530Z,99549.94
2023-05-06T02:15:17.625Z,99542.56
2023-05-06T02:17:46.325Z,99543.44
2023-05-06T02:20:14.623Z,99548.34
2023-05-06T02:22:42.718Z,99543.59
2023-05-06T02:25:11.345Z,99543.38
2023-05-06T02:27:39.516Z,99534.44
2023-05-06T02:30:09.793Z,99539.06
2023-05-06T02:32:37.992Z,99540.19
2023-05-06T02:35:07.292Z,99542.03
2023-05-06T02:37:35.508Z,99539.75
2023-05-06T02:40:06.461Z,99538.94
2023-05-06T02:42:35.808Z,99533.06
2023-05-06T02:45:04.171Z,99542.09
2023-05-06T02:47:33.769Z,99533.22
2023-05-06T02:50:01.935Z,99539.06
2023-05-06T02:52:30.044Z,99539.44
2023-05-06T02:54:58.040Z,99542.56
2023-05-06T02:57:26.452Z,99541.84
2023-05-06T02:59:54.706Z,99551.28
2023-05-06T03:02:22.740Z,99547.00
2023-05-06T03:04:52.239Z,99539.56
2023-05-06T03:07:20.338Z,99545.81
2023-05-06T03:09:48.387Z,99543.84
2023-05-06T03:12:16.639Z,99540.72
2023-05-06T03:14:44.715Z,99545.78
2023-05-06T03:17:12.906Z,99546.56
2023-05-06T03:19:41.435Z,99548.16
2023-05-06T03:22:10.872Z,99539.25
2023-05-06T03:24:38.978Z,99543.56
2023-05-06T03:27:07.015Z,99547.16
2023-05-06T03:29:35.148Z,99545.56
2023-05-06T03:32:04.805Z,99555.09
2023-05-06T03:34:33.066Z,99555.22
2023-05-06T03:37:01.215Z,99567.78
2023-05-06T03:39:30.744Z,99565.59
2023-05-06T03:41:58.953Z,99578.94
2023-05-06T03:44:27.058Z,99579.50
2023-05-06T03:46:55.154Z,99576.03
2023-05-06T03:49:23.442Z,99573.78
2023-05-06T03:51:51.611Z,99577.03
2023-05-06T03:54:19.790Z,99582.97
2023-05-06T03:56:49.327Z,99588.09
2023-05-06T03:59:17.393Z,99590.13
2023-05-06T04:01:47.375Z,99592.56
2023-05-06T04:04:15.722Z,99594.53
2023-05-06T04:06:45.531Z,99593.88
2023-05-06T04:09:13.824Z,99595.50
2023-05-06T04:11:41.873Z,99594.41
2023-05-06T04:14:11.395Z,99599.59
2023-05-06T04:16:39.604Z,99603.19
2023-05-06T04:19:08.730Z,99605.94
2023-05-06T04:21:37.259Z,99598.56
2023-05-06T04:24:05.746Z,99604.47
2023-05-06T04:26:33.933Z,99602.25
2023-05-06T04:29:02.034Z,99606.25
2023-05-06T04:31:33.076Z,99605.47
2023-05-06T04:34:01.479Z,99601.19
2023-05-06T04:36:29.920Z,99606.66
2023-05-06T04:38:58.470Z,99608.63
2023-05-06T04:41:30.484Z,99612.91
2023-05-06T04:44:00.148Z,99614.47
2023-05-06T04:46:28.692Z,99611.38
2023-05-06T04:48:58.440Z,99615.31
2023-05-06T04:51:26.931Z,99621.16
2023-05-06T04:53:55.503Z,99619.63
2023-05-06T04:56:23.742Z,99618.47
2023-05-06T04:58:51.941Z,99624.34
2023-05-06T05:01:21.078Z,99623.19
2023-05-06T05:03:49.606Z,99626.75
2023-05-06T05:06:19.558Z,99620.09
2023-05-06T05:08:47.785Z,99629.09
2023-05-06T05:11:18.648Z,99623.22
2023-05-06T05:13:46.732Z,99624.38
2023-05-06T05:16:15.211Z,99618.94
2023-05-06T05:18:44.200Z,99628.31
2023-05-06T05:21:15.089Z,99621.31
2023-05-06T05:23:44.752Z,99622.88
2023-05-06T05:26:13.471Z,99618.97
2023-05-06T05:28:41.701Z,99620.47
2023-05-06T05:31:10.582Z,99614.50
2023-05-06T05:33:40.282Z,99623.09
2023-05-06T05:36:09.091Z,99622.22
2023-05-06T05:38:37.245Z,99623.69
2023-05-06T05:41:07.873Z,99623.97
2023-05-06T05:43:36.206Z,99624.31
2023-05-06T05:46:04.705Z,99624.59
2023-05-06T05:48:33.860Z,99621.94
2023-05-06T05:51:03.363Z,99631.50
2023-05-06T05:53:31.424Z,99626.09
2023-05-06T05:55:59.564Z,99626.13
2023-05-06T05:58:29.148Z,99623.41
2023-05-06T06:00:57.333Z,99626.91
2023-05-06T06:03:25.727Z,99624.16
2023-05-06T06:05:55.516Z,99616.41
2023-05-06T06:08:23.748Z,99624.28
2023-05-06T06:10:51.850Z,99628.19
2023-05-06T06:13:20.477Z,99626.22
2023-05-06T06:15:50.474Z,99625.44
2023-05-06T06:18:18.600Z,99629.75
2023-05-06T06:20:46.683Z,99630.16
2023-05-06T06:23:14.781Z,99627.44
2023-05-06T06:25:42.974Z,99626.63
2023-05-06T06:28:11.178Z,99623.50
2023-05-06T06:30:39.396Z,99619.91
2023-05-06T06:33:09.007Z,99615.56
2023-05-06T06:35:37.363Z,99616.69
2023-05-06T06:38:05.870Z,99619.00
2023-05-06T06:40:34.338Z,99621.00
2023-05-06T06:43:02.386Z,99620.59
2023-05-06T06:45:30.602Z,99620.97
2023-05-06T06:47:58.833Z,99615.53
2023-05-06T06:50:28.739Z,99614.78
2023-05-06T06:52:56.961Z,99617.84
2023-05-06T06:55:25.281Z,99613.13
2023-05-06T06:57:53.458Z,99611.16
2023-05-06T07:00:21.578Z,99613.94
2023-05-06T07:02:49.773Z,99624.84
2023-05-06T07:05:17.931Z,99619.28
2023-05-06T07:07:47.442Z,99623.22
2023-05-06T07:10:16.022Z,99628.53
2023-05-06T07:12:44.038Z,99619.09
2023-05-06T07:15:13.067Z,99617.84
2023-05-06T07:17:41.302Z,99613.09
2023-05-06T07:20:10.719Z,99617.22
2023-05-06T07:22:39.205Z,99610.94
2023-05-06T07:25:10.134Z,99609.69
2023-05-06T07:27:39.147Z,99607.28
2023-05-06T07:30:08.675Z,99614.28
2023-05-06T07:32:37.198Z,99608.38
2023-05-06T07:35:05.883Z,99615.88
2023-05-06T07:37:34.112Z,99608.28
2023-05-06T07:40:02.361Z,99606.34
2023-05-06T07:42:31.838Z,99609.38
2023-05-06T07:45:00.243Z,99616.84
2023-05-06T07:47:30.423Z,99616.75
2023-05-06T07:49:58.997Z,99623.91
2023-05-06T07:52:27.757Z,99617.50
2023-05-06T07:54:55.912Z,99622.41
2023-05-06T07:57:23.970Z,99618.38
2023-05-06T07:59:53.941Z,99617.91
2023-05-06T08:02:22.190Z,99620.00
2023-05-06T08:04:51.744Z,99622.47
2023-05-06T08:07:21.296Z,99634.03
2023-05-06T08:09:49.364Z,99628.09
2023-05-06T08:12:17.583Z,99620.66
2023-05-06T08:14:45.657Z,99624.38
2023-05-06T08:17:15.967Z,99627.09
2023-05-06T08:19:44.084Z,99636.66
2023-05-06T08:22:12.168Z,99624.72
2023-05-06T08:24:40.338Z,99623.09
2023-05-06T08:27:08.446Z,99625.28
2023-05-06T08:29:36.501Z,99628.28
2023-05-06T08:32:04.583Z,99620.50
2023-05-06T08:34:35.060Z,99622.53
2023-05-06T08:37:03.757Z,99624.03
2023-05-06T08:39:32.310Z,99619.66
2023-05-06T08:42:03.106Z,99620.97
2023-05-06T08:44:31.610Z,99614.38
2023-05-06T08:47:00.220Z,99624.25
2023-05-06T08:49:28.453Z,99617.47
2023-05-06T08:51:58.638Z,99609.53
2023-05-06T08:54:27.566Z,99623.72
2023-05-06T08:56:58.902Z,99622.28
2023-05-06T08:59:30.468Z,99610.75
2023-05-06T09:01:58.813Z,99618.59
2023-05-06T09:04:27.601Z,99619.94
2023-05-06T09:06:57.241Z,99619.44
2023-05-06T09:09:25.520Z,99606.22
2023-05-06T09:11:55.292Z,99618.59
2023-05-06T09:14:23.585Z,99609.84
2023-05-06T09:16:53.629Z,99610.63
2023-05-06T09:19:23.951Z,99604.41
2023-05-06T09:21:53.481Z,99602.44
2023-05-06T09:24:23.126Z,99613.41
2023-05-06T09:26:57.068Z,99604.25
2023-05-06T09:29:25.204Z,99604.53
2023-05-06T09:31:55.180Z,99605.63
2023-05-06T09:34:24.843Z,99595.78
2023-05-06T09:36:57.243Z,99588.16
2023-05-06T09:39:28.228Z,99582.34
2023-05-06T09:41:56.345Z,99591.72
2023-05-06T09:44:26.224Z,99587.16
2023-05-06T09:46:54.545Z,99593.34
2023-05-06T09:49:23.392Z,99588.34
2023-05-06T09:51:51.811Z,99579.97
2023-05-06T09:54:20.625Z,99583.50
2023-05-06T09:56:51.327Z,99588.50
2023-05-06T09:59:21.013Z,99583.16
2023-05-06T10:01:50.295Z,99573.88
2023-05-06T10:04:19.920Z,99574.66
2023-05-06T10:06:51.221Z,99578.06
2023-05-06T10:09:20.384Z,99570.91
2023-05-06T10:11:50.349Z,99578.31
2023-05-06T10:14:19.754Z,99565.63
2023-05-06T10:16:49.860Z,99575.66
2023-05-06T10:19:23.368Z,99575.16
2023-05-06T10:21:56.278Z,99577.31
2023-05-06T10:24:33.098Z,99569.66
2023-05-06T10:27:06.821Z,99562.34
2023-05-06T10:29:39.013Z,99568.31
2023-05-06T10:32:10.246Z,99571.50
2023-05-06T10:34:47.856Z,99574.38
2023-05-06T10:37:17.076Z,99574.28
2023-05-06T10:39:45.841Z,99569.03
2023-05-06T10:42:18.218Z,99565.38
2023-05-06T10:44:59.706Z,99552.97
2023-05-06T10:47:28.145Z,99565.28
2023-05-06T10:50:22.836Z,99570.59
2023-05-06T10:52:55.664Z,99580.19
2023-05-06T10:55:28.865Z,99576.50
2023-05-06T10:58:01.427Z,99576.94
2023-05-06T11:00:33.545Z,99576.72
2023-05-06T11:03:06.857Z,99567.06
2023-05-06T11:05:49.116Z,99578.63
2023-05-06T11:08:23.849Z,99587.28
2023-05-06T11:10:52.184Z,99592.31
2023-05-06T11:13:24.604Z,99579.72
2023-05-06T11:15:53.726Z,99583.56
2023-05-06T11:18:44.858Z,99576.16
2023-05-06T11:21:41.180Z,99578.59
2023-05-06T11:24:10.823Z,99579.63
2023-05-06T11:26:41.000Z,99575.00
2023-05-06T11:29:11.542Z,99578.22
2023-05-06T11:31:42.671Z,99582.00
2023-05-06T11:34:13.601Z,99573.06
2023-05-06T11:36:50.822Z,99573.44
2023-05-06T11:39:19.203Z,99573.72
2023-05-06T11:41:48.282Z,99585.41
2023-05-06T11:44:30.151Z,99579.69
2023-05-06T11:47:00.153Z,99571.63
2023-05-06T11:49:28.734Z,99573.88
2023-05-06T11:51:58.689Z,99571.63
2023-05-06T11:54:28.079Z,99571.84
2023-05-06T11:56:57.515Z,99568.47
2023-05-06T11:59:32.237Z,99570.31
2023-05-06T12:02:02.129Z,99567.38
2023-05-06T12:04:39.461Z,99566.56
2023-05-06T12:07:08.970Z,99568.75
2023-05-06T12:09:38.589Z,99571.31
2023-05-06T12:12:08.202Z,99563.19
2023-05-06T12:14:38.986Z,99561.75
2023-05-06T12:17:07.444Z,99565.22
2023-05-06T12:19:38.244Z,99566.22
2023-05-06T12:22:24.765Z,99574.66
2023-05-06T12:24:53.516Z,99564.72
2023-05-06T12:27:36.847Z,99569.88
2023-05-06T12:30:09.623Z,99569.34
2023-05-06T12:32:57.425Z,99572.69
2023-05-06T12:35:35.510Z,99569.00
2023-05-06T12:38:11.140Z,99565.78
2023-05-06T12:40:39.841Z,99563.72
2023-05-06T12:43:09.393Z,99560.25
2023-05-06T12:45:39.982Z,99557.41
2023-05-06T12:48:09.835Z,99555.91
2023-05-06T12:50:40.517Z,99560.50
2023-05-06T12:53:10.809Z,99557.38
2023-05-06T12:55:41.879Z,99559.63
2023-05-06T12:58:17.501Z,99564.72
2023-05-06T13:00:47.603Z,99559.38
2023-05-06T13:03:16.046Z,99558.25
2023-05-06T13:05:44.206Z,99542.19
2023-05-06T13:08:13.921Z,99551.09
2023-05-06T13:10:42.243Z,99544.78
2023-05-06T13:13:10.456Z,99541.41
2023-05-06T13:15:39.005Z,99538.19
2023-05-06T13:18:08.945Z,99540.00
2023-05-06T13:20:37.053Z,99539.72
2023-05-06T13:23:05.419Z,99530.28
2023-05-06T13:25:34.134Z,99533.78
2023-05-06T13:28:02.264Z,99536.78
2023-05-06T13:30:31.316Z,99531.59
2023-05-06T13:32:59.786Z,99535.81
2023-05-06T13:35:30.566Z,99527.19
2023-05-06T13:37:58.840Z,99535.25
2023-05-06T13:40:27.584Z,99537.69
2023-05-06T13:42:57.309Z,99530.97
2023-05-06T13:45:26.204Z,99532.50
2023-05-06T13:47:54.540Z,99527.38
2023-05-06T13:50:22.889Z,99537.31
2023-05-06T13:52:52.701Z,99526.91
2023-05-06T13:55:21.028Z,99528.75
2023-05-06T13:57:49.196Z,99529.47
2023-05-06T14:00:18.231Z,99530.16
2023-05-06T14:02:46.412Z,99536.66
2023-05-06T14:05:15.949Z,99536.66
2023-05-06T14:07:44.567Z,99530.94
2023-05-06T14:10:14.373Z,99533.41
2023-05-06T14:12:43.344Z,99532.31
2023-05-06T14:15:13.300Z,99534.66
2023-05-06T14:17:42.446Z,99527.31
2023-05-06T14:20:11.944Z,99535.81
2023-05-06T14:22:42.684Z,99530.66
2023-05-06T14:25:12.108Z,99530.09
2023-05-06T14:27:42.823Z,99535.81
2023-05-06T14:30:12.082Z,99540.06
2023-05-06T14:32:40.221Z,99535.59
2023-05-06T14:35:10.506Z,99540.56
2023-05-06T14:37:39.119Z,99540.84
2023-05-06T14:40:10.081Z,99529.72
2023-05-06T14:42:38.652Z,99530.22
2023-05-06T14:45:09.991Z,99526.81
2023-05-06T14:47:38.410Z,99521.38
2023-05-06T14:50:09.357Z,99530.78
2023-05-06T14:52:38.908Z,99527.16
2023-05-06T14:55:08.910Z,99530.53
2023-05-06T14:57:37.412Z,99527.63
2023-05-06T15:00:10.420Z,99528.28
2023-05-06T15:02:40.876Z,99520.91
2023-05-06T15:05:10.835Z,99528.81
2023-05-06T15:07:39.468Z,99524.38
2023-05-06T15:10:08.980Z,99525.41
2023-05-06T15:12:37.977Z,99530.34
2023-05-06T15:15:09.689Z,99532.22
2023-05-06T15:17:39.534Z,99523.75
2023-05-06T15:20:10.049Z,99525.72
2023-05-06T15:22:39.626Z,99523.03
2023-05-06T15:25:12.395Z,99527.56
2023-05-06T15:27:45.070Z,99529.97
2023-05-06T15:30:15.254Z,99521.88
2023-05-06T15:32:43.502Z,99531.75
2023-05-06T15:35:12.293Z,99527.16
2023-05-06T15:37:40.939Z,99518.09
2023-05-06T15:40:12.180Z,99520.66
2023-05-06T15:42:41.441Z,99527.34
2023-05-06T15:45:11.363Z,99532.72
2023-05-06T15:47:41.023Z,99530.31
2023-05-06T15:50:20.187Z,99521.81
2023-05-06T15:52:57.803Z,99522.13
2023-05-06T15:55:26.678Z,99531.09
2023-05-06T15:57:56.534Z,99528.59
2023-05-06T16:00:26.176Z,99533.66
2023-05-06T16:02:55.898Z,99530.31
2023-05-06T16:05:24.756Z,99526.88
2023-05-06T16:07:52.924Z,99525.38
2023-05-06T16:10:21.633Z,99528.59
2023-05-06T16:12:49.917Z,99519.16
2023-05-06T16:15:18.629Z,99526.75
2023-05-06T16:17:47.021Z,99524.03
2023-05-06T16:20:16.780Z,99525.28
2023-05-06T16:22:51.216Z,99524.53
2023-05-06T16:25:19.448Z,99524.69
2023-05-06T16:27:47.983Z,99518.88
2023-05-06T16:30:16.814Z,99524.81
2023-05-06T16:32:45.184Z,99523.56
2023-05-06T16:35:13.476Z,99525.56
2023-05-06T16:37:44.692Z,99528.38
2023-05-06T16:40:14.648Z,99530.06
2023-05-06T16:42:43.068Z,99526.56
2023-05-06T16:45:12.838Z,99528.25
2023-05-06T16:47:41.443Z,99529.47
2023-05-06T16:50:10.377Z,99526.69
2023-05-06T16:52:40.320Z,99533.19
2023-05-06T16:55:11.182Z,99539.84
2023-05-06T16:57:39.525Z,99541.53
2023-05-06T17:00:12.460Z,99540.84
2023-05-06T17:02:41.696Z,99539.31
2023-05-06T17:05:10.206Z,99543.66
2023-05-06T17:07:38.602Z,99550.00
2023-05-06T17:10:07.865Z,99544.81
2023-05-06T17:12:38.213Z,99545.66
2023-05-06T17:15:07.443Z,99549.59
2023-05-06T17:17:35.773Z,99559.50
2023-05-06T17:20:05.406Z,99556.41
2023-05-06T17:22:33.648Z,99554.53
2023-05-06T17:25:02.264Z,99558.88
2023-05-06T17:27:32.237Z,99571.84
2023-05-06T17:30:02.589Z,99574.19
2023-05-06T17:32:30.861Z,99575.81
2023-05-06T17:34:59.120Z,99576.66
2023-05-06T17:37:28.707Z,99584.94
2023-05-06T17:39:57.049Z,99579.91
2023-05-06T17:42:27.501Z,99581.13
2023-05-06T17:44:56.012Z,99583.16
2023-05-06T17:47:30.396Z,99589.47
2023-05-06T17:49:59.131Z,99589.47
2023-05-06T17:52:28.356Z,99591.88
2023-05-06T17:55:14.981Z,99588.00
2023-05-06T17:57:44.995Z,99590.41
2023-05-06T18:00:15.096Z,99601.06
2023-05-06T18:02:45.323Z,99604.69
2023-05-06T18:05:14.469Z,99611.38
2023-05-06T18:07:42.873Z,99612.97
2023-05-06T18:10:12.264Z,99620.88
2023-05-06T18:12:40.773Z,99618.19
2023-05-06T18:15:10.204Z,99614.31
2023-05-06T18:17:38.693Z,99615.91
2023-05-06T18:20:10.344Z,99615.97
2023-05-06T18:22:39.247Z,99615.19
2023-05-06T18:25:08.866Z,99616.78
2023-05-06T18:27:56.093Z,99609.78
2023-05-06T18:30:24.397Z,99625.13
2023-05-06T18:32:54.549Z,99626.34
2023-05-06T18:35:26.023Z,99636.59
2023-05-06T18:37:54.118Z,99629.16
2023-05-06T18:40:22.514Z,99636.66
2023-05-06T18:42:50.702Z,99635.88
2023-05-06T18:45:19.048Z,99642.97
2023-05-06T18:47:47.799Z,99644.19
2023-05-06T18:50:16.348Z,99645.38
2023-05-06T18:52:46.189Z,99647.78
2023-05-06T18:55:14.532Z,99656.00
2023-05-06T18:57:45.972Z,99655.63
2023-05-06T19:00:14.935Z,99657.19
2023-05-06T19:02:43.281Z,99661.94
2023-05-06T19:05:13.086Z,99665.09
2023-05-06T19:07:42.023Z,99664.31
2023-05-06T19:10:14.291Z,99665.91
2023-05-06T19:12:42.951Z,99659.25
2023-05-06T19:15:14.114Z,99672.97
2023-05-06T19:17:42.588Z,99673.75
2023-05-06T19:20:13.925Z,99665.94
2023-05-06T19:22:42.949Z,99671.41
2023-05-06T19:25:13.174Z,99664.34
2023-05-06T19:27:41.565Z,99672.97
2023-05-06T19:30:11.072Z,99671.41
2023-05-06T19:32:40.473Z,99667.47
2023-05-06T19:35:09.890Z,99668.28
2023-05-06T19:37:38.562Z,99668.66
2023-05-06T19:40:08.123Z,99673.75
2023-05-06T19:42:37.771Z,99671.00
2023-05-06T19:45:09.416Z,99677.28
2023-05-06T19:47:37.644Z,99677.63
2023-05-06T19:50:07.304Z,99679.25
2023-05-06T19:52:35.901Z,99679.63
2023-05-06T19:55:04.241Z,99680.03
2023-05-06T19:57:33.921Z,99675.31
2023-05-06T20:00:06.134Z,99677.28
2023-05-06T20:02:34.364Z,99676.09
2023-05-06T20:05:02.851Z,99680.81
2023-05-06T20:07:31.255Z,99682.34
2023-05-06T20:09:59.766Z,99687.06
2023-05-06T20:12:28.413Z,99696.47
2023-05-06T20:14:57.412Z,99682.38
2023-05-06T20:17:27.231Z,99689.44
2023-05-06T20:19:58.469Z,99691.00
2023-05-06T20:22:31.828Z,99696.47
2023-05-06T20:25:09.545Z,99695.66
2023-05-06T20:27:38.005Z,99697.63
2023-05-06T20:30:08.172Z,99698.03
2023-05-06T20:32:38.400Z,99698.41
2023-05-06T20:35:07.832Z,99695.66
2023-05-06T20:37:36.378Z,99701.16
2023-05-06T20:40:06.810Z,99712.47
2023-05-06T20:42:35.038Z,99708.91
2023-05-06T20:45:04.020Z,99711.25
2023-05-06T20:47:32.173Z,99715.91
2023-05-06T20:50:01.848Z,99718.28
2023-05-06T20:52:29.923Z,99723.75
2023-05-06T20:54:58.290Z,99720.63
2023-05-06T20:57:26.522Z,99717.47
2023-05-06T20:59:56.320Z,99723.34
2023-05-06T21:02:24.591Z,99723.75
2023-05-06T21:04:53.326Z,99720.63
2023-05-06T21:07:22.845Z,99723.72
2023-05-06T21:09:51.024Z,99724.13
2023-05-06T21:12:19.214Z,99729.19
2023-05-06T21:14:47.333Z,99733.91
2023-05-06T21:17:15.508Z,99723.72
2023-05-06T21:19:43.670Z,99735.81
2023-05-06T21:22:12.823Z,99738.50
2023-05-06T21:24:42.360Z,99735.38
2023-05-06T21:27:10.522Z,99741.63
2023-05-06T21:29:38.842Z,99742.44
2023-05-06T21:32:07.088Z,99744.75
2023-05-06T21:34:35.940Z,99744.41
2023-05-06T21:37:04.107Z,99747.50
2023-05-06T21:39:32.393Z,99751.78
2023-05-06T21:42:01.809Z,99758.84
2023-05-06T21:44:29.945Z,99763.53
2023-05-06T21:46:58.072Z,99767.00
2023-05-06T21:49:26.205Z,99768.56
2023-05-06T21:51:54.325Z,99777.13
2023-05-06T21:54:24.267Z,99772.78
2023-05-06T21:56:52.359Z,99776.69
2023-05-06T21:59:21.840Z,99780.56
2023-05-06T22:01:50.096Z,99789.13
2023-05-06T22:04:20.143Z,99788.69
2023-05-06T22:06:48.335Z,99788.25
2023-05-06T22:09:16.481Z,99791.75
2023-05-06T22:11:44.670Z,99792.84
2023-05-06T22:14:12.847Z,99801.94
2023-05-06T22:16:43.062Z,99799.22
2023-05-06T22:19:12.227Z,99802.78
2023-05-06T22:21:40.370Z,99799.84
2023-05-06T22:24:08.946Z,99805.78
2023-05-06T22:26:37.289Z,99812.44
2023-05-06T22:29:05.524Z,99813.59
2023-05-06T22:31:33.828Z,99808.84
2023-05-06T22:34:04.733Z,99812.34
2023-05-06T22:36:33.714Z,99810.00
2023-05-06T22:39:02.686Z,99812.66
2023-05-06T22:41:31.394Z,99813.00
2023-05-06T22:44:00.678Z,99817.69
2023-05-06T22:46:30.235Z,99803.66
2023-05-06T22:49:00.539Z,99817.66
2023-05-06T22:51:30.418Z,99806.63
2023-05-06T22:53:59.009Z,99811.22
2023-05-06T22:56:27.388Z,99811.97
2023-05-06T22:58:55.639Z,99821.16
2023-05-06T23:01:25.357Z,99817.13
2023-05-06T23:03:53.685Z,99809.94
2023-05-06T23:06:21.961Z,99821.78
2023-05-06T23:08:51.521Z,99817.97
2023-05-06T23:11:19.706Z,99822.41
2023-05-06T23:13:47.757Z,99822.53
2023-05-06T23:16:16.326Z,99818.31
2023-05-06T23:18:45.520Z,99811.34
2023-05-06T23:21:13.650Z,99803.22
2023-05-06T23:23:42.115Z,99803.66
2023-05-06T23:26:11.738Z,99800.84
2023-05-06T23:28:39.777Z,99802.69
2023-05-06T23:31:08.031Z,99803.31
2023-05-06T23:33:36.279Z,99807.41
2023-05-06T23:36:04.524Z,99796.06
2023-05-06T23:38:32.596Z,99805.28
2023-05-06T23:41:00.815Z,99798.31
2023-05-06T23:43:30.382Z,99797.56
2023-05-06T23:45:59.281Z,99788.25
2023-05-06T23:48:27.410Z,99782.88
2023-05-06T23:50:55.549Z,99779.69
2023-05-06T23:53:23.670Z,99786.31
2023-05-06T23:55:51.940Z,99778.13
2023-05-06T23:58:19.973Z,99788.41
